sensor_id;sensor_type;location;lat;lon;timestamp;temperature;humidity
11925;DHT22;6022;48.768;18.608;2023-09-18T00:00:48;17.60;99.90
11925;DHT22;6022;48.768;18.608;2023-09-18T00:03:19;17.90;99.90
11925;DHT22;6022;48.768;18.608;2023-09-18T00:05:48;17.70;99.90
11925;DHT22;6022;48.768;18.608;2023-09-18T00:08:16;17.30;99.90
11925;DHT22;6022;48.768;18.608;2023-09-18T00:10:49;17.40;99.90
11925;DHT22;6022;48.768;18.608;2023-09-18T00:13:18;17.60;99.90
11925;DHT22;6022;48.768;18.608;2023-09-18T00:15:45;18.10;99.90
11925;DHT22;6022;48.768;18.608;2023-09-18T00:18:16;17.40;99.90
11925;DHT22;6022;48.768;18.608;2023-09-18T00:20:44;17.80;99.90
11925;DHT22;6022;48.768;18.608;2023-09-18T00:23:12;17.90;99.90
11925;DHT22;6022;48.768;18.608;2023-09-18T00:25:40;17.90;99.90
11925;DHT22;6022;48.768;18.608;2023-09-18T00:28:11;17.60;99.90
11925;DHT22;6022;48.768;18.608;2023-09-18T00:30:42;18.00;99.90
11925;DHT22;6022;48.768;18.608;2023-09-18T00:33:13;17.40;99.90
11925;DHT22;6022;48.768;18.608;2023-09-18T00:35:44;17.60;99.90
11925;DHT22;6022;48.768;18.608;2023-09-18T00:38:12;17.80;99.90
11925;DHT22;6022;48.768;18.608;2023-09-18T00:40:39;18.00;99.90
11925;DHT22;6022;48.768;18.608;2023-09-18T00:43:07;18.00;99.90
11925;DHT22;6022;48.768;18.608;2023-09-18T00:45:38;18.50;99.90
11925;DHT22;6022;48.768;18.608;2023-09-18T00:48:08;18.00;99.90
11925;DHT22;6022;48.768;18.608;2023-09-18T00:50:36;18.10;99.90
11925;DHT22;6022;48.768;18.608;2023-09-18T00:53:08;18.00;99.90
11925;DHT22;6022;48.768;18.608;2023-09-18T00:55:37;17.80;99.90
11925;DHT22;6022;48.768;18.608;2023-09-18T00:58:06;18.20;99.90
11925;DHT22;6022;48.768;18.608;2023-09-18T01:00:34;18.20;99.90
11925;DHT22;6022;48.768;18.608;2023-09-18T01:03:02;18.00;99.90
11925;DHT22;6022;48.768;18.608;2023-09-18T01:05:32;18.30;99.90
11925;DHT22;6022;48.768;18.608;2023-09-18T01:08:00;18.40;99.90
11925;DHT22;6022;48.768;18.608;2023-09-18T01:10:41;17.70;99.90
11925;DHT22;6022;48.768;18.608;2023-09-18T01:13:35;18.00;99.90
11925;DHT22;6022;48.768;18.608;2023-09-18T01:16:20;18.30;99.90
11925;DHT22;6022;48.768;18.608;2023-09-18T01:18:53;18.00;99.90
11925;DHT22;6022;48.768;18.608;2023-09-18T01:21:21;18.10;99.90
11925;DHT22;6022;48.768;18.608;2023-09-18T01:23:48;18.10;99.90
11925;DHT22;6022;48.768;18.608;2023-09-18T01:26:16;17.90;99.90
11925;DHT22;6022;48.768;18.608;2023-09-18T01:28:43;18.30;99.90
11925;DHT22;6022;48.768;18.608;2023-09-18T01:31:10;18.10;99.90
11925;DHT22;6022;48.768;18.608;2023-09-18T01:33:38;18.10;99.90
11925;DHT22;6022;48.768;18.608;2023-09-18T01:36:09;17.90;99.90
11925;DHT22;6022;48.768;18.608;2023-09-18T01:38:38;18.00;99.90
11925;DHT22;6022;48.768;18.608;2023-09-18T01:41:05;18.10;99.90
11925;DHT22;6022;48.768;18.608;2023-09-18T01:43:33;17.70;99.90
11925;DHT22;6022;48.768;18.608;2023-09-18T01:46:01;17.90;99.90
11925;DHT22;6022;48.768;18.608;2023-09-18T01:48:30;17.90;99.90
11925;DHT22;6022;48.768;18.608;2023-09-18T01:50:57;17.90;99.90
11925;DHT22;6022;48.768;18.608;2023-09-18T01:53:24;17.80;99.90
11925;DHT22;6022;48.768;18.608;2023-09-18T01:55:53;17.70;99.90
11925;DHT22;6022;48.768;18.608;2023-09-18T01:58:20;17.90;99.90
11925;DHT22;6022;48.768;18.608;2023-09-18T02:00:47;17.90;99.90
11925;DHT22;6022;48.768;18.608;2023-09-18T02:03:15;18.00;99.90
11925;DHT22;6022;48.768;18.608;2023-09-18T02:06:04;17.50;99.90
11925;DHT22;6022;48.768;18.608;2023-09-18T02:08:32;18.10;99.90
11925;DHT22;6022;48.768;18.608;2023-09-18T02:10:59;17.80;99.90
11925;DHT22;6022;48.768;18.608;2023-09-18T02:13:26;18.20;99.90
11925;DHT22;6022;48.768;18.608;2023-09-18T02:15:53;17.20;99.90
11925;DHT22;6022;48.768;18.608;2023-09-18T02:18:21;17.80;99.90
11925;DHT22;6022;48.768;18.608;2023-09-18T02:20:48;18.20;99.90
11925;DHT22;6022;48.768;18.608;2023-09-18T02:23:16;17.30;99.90
11925;DHT22;6022;48.768;18.608;2023-09-18T02:25:43;17.50;99.90
11925;DHT22;6022;48.768;18.608;2023-09-18T02:28:10;17.50;99.90
11925;DHT22;6022;48.768;18.608;2023-09-18T02:30:37;18.10;99.90
11925;DHT22;6022;48.768;18.608;2023-09-18T02:33:04;17.60;99.90
11925;DHT22;6022;48.768;18.608;2023-09-18T02:35:31;17.70;99.90
11925;DHT22;6022;48.768;18.608;2023-09-18T02:37:59;18.00;99.90
11925;DHT22;6022;48.768;18.608;2023-09-18T02:40:27;17.70;99.90
11925;DHT22;6022;48.768;18.608;2023-09-18T02:42:54;17.60;99.90
11925;DHT22;6022;48.768;18.608;2023-09-18T02:45:21;17.50;99.90
11925;DHT22;6022;48.768;18.608;2023-09-18T02:47:48;17.70;99.90
11925;DHT22;6022;48.768;18.608;2023-09-18T02:50:16;17.50;99.90
11925;DHT22;6022;48.768;18.608;2023-09-18T02:52:43;17.60;99.90
11925;DHT22;6022;48.768;18.608;2023-09-18T02:55:10;17.70;99.90
11925;DHT22;6022;48.768;18.608;2023-09-18T02:57:37;17.40;99.90
11925;DHT22;6022;48.768;18.608;2023-09-18T03:00:05;17.70;99.90
11925;DHT22;6022;48.768;18.608;2023-09-18T03:02:33;17.20;99.90
11925;DHT22;6022;48.768;18.608;2023-09-18T03:05:01;18.00;99.90
11925;DHT22;6022;48.768;18.608;2023-09-18T03:07:28;16.90;99.90
11925;DHT22;6022;48.768;18.608;2023-09-18T03:09:56;17.20;99.90
11925;DHT22;6022;48.768;18.608;2023-09-18T03:12:23;16.90;99.90
11925;DHT22;6022;48.768;18.608;2023-09-18T03:14:50;17.50;99.90
11925;DHT22;6022;48.768;18.608;2023-09-18T03:17:17;17.70;99.90
11925;DHT22;6022;48.768;18.608;2023-09-18T03:19:50;17.70;99.90
11925;DHT22;6022;48.768;18.608;2023-09-18T03:22:17;17.20;99.90
11925;DHT22;6022;48.768;18.608;2023-09-18T03:24:45;17.00;99.90
11925;DHT22;6022;48.768;18.608;2023-09-18T03:27:12;17.80;99.90
11925;DHT22;6022;48.768;18.608;2023-09-18T03:29:39;17.30;99.90
11925;DHT22;6022;48.768;18.608;2023-09-18T03:32:07;17.40;99.90
11925;DHT22;6022;48.768;18.608;2023-09-18T03:34:34;17.50;99.90
11925;DHT22;6022;48.768;18.608;2023-09-18T03:37:01;15.80;99.90
11925;DHT22;6022;48.768;18.608;2023-09-18T03:39:28;17.50;99.90
11925;DHT22;6022;48.768;18.608;2023-09-18T03:41:55;17.40;99.90
11925;DHT22;6022;48.768;18.608;2023-09-18T03:44:22;17.30;99.90
11925;DHT22;6022;48.768;18.608;2023-09-18T03:46:50;17.50;99.90
11925;DHT22;6022;48.768;18.608;2023-09-18T03:49:17;17.00;99.90
11925;DHT22;6022;48.768;18.608;2023-09-18T03:51:44;16.80;99.90
11925;DHT22;6022;48.768;18.608;2023-09-18T03:54:11;17.30;99.90
11925;DHT22;6022;48.768;18.608;2023-09-18T03:56:38;17.40;99.90
11925;DHT22;6022;48.768;18.608;2023-09-18T03:59:06;17.20;99.90
11925;DHT22;6022;48.768;18.608;2023-09-18T04:01:33;17.30;99.90
11925;DHT22;6022;48.768;18.608;2023-09-18T04:04:00;16.60;99.90
11925;DHT22;6022;48.768;18.608;2023-09-18T04:06:41;16.80;99.90
11925;DHT22;6022;48.768;18.608;2023-09-18T04:09:09;17.30;99.90
11925;DHT22;6022;48.768;18.608;2023-09-18T04:11:36;17.30;99.90
11925;DHT22;6022;48.768;18.608;2023-09-18T04:14:06;17.60;99.90
11925;DHT22;6022;48.768;18.608;2023-09-18T04:16:55;16.50;99.90
11925;DHT22;6022;48.768;18.608;2023-09-18T04:19:46;17.40;99.90
11925;DHT22;6022;48.768;18.608;2023-09-18T04:22:24;17.40;99.90
11925;DHT22;6022;48.768;18.608;2023-09-18T04:25:09;16.60;99.90
11925;DHT22;6022;48.768;18.608;2023-09-18T04:27:52;17.00;99.90
11925;DHT22;6022;48.768;18.608;2023-09-18T04:30:46;16.80;99.90
11925;DHT22;6022;48.768;18.608;2023-09-18T04:33:22;17.60;99.90
11925;DHT22;6022;48.768;18.608;2023-09-18T04:36:31;17.50;99.90
11925;DHT22;6022;48.768;18.608;2023-09-18T04:39:04;17.00;99.90
11925;DHT22;6022;48.768;18.608;2023-09-18T04:42:13;17.40;99.90
11925;DHT22;6022;48.768;18.608;2023-09-18T04:44:55;17.20;99.90
11925;DHT22;6022;48.768;18.608;2023-09-18T04:47:25;17.10;99.90
11925;DHT22;6022;48.768;18.608;2023-09-18T04:50:44;17.50;99.90
11925;DHT22;6022;48.768;18.608;2023-09-18T04:53:28;17.70;99.90
11925;DHT22;6022;48.768;18.608;2023-09-18T04:56:26;18.10;99.90
11925;DHT22;6022;48.768;18.608;2023-09-18T04:59:05;18.00;99.90
11925;DHT22;6022;48.768;18.608;2023-09-18T05:02:06;18.10;99.90
11925;DHT22;6022;48.768;18.608;2023-09-18T05:05:42;18.00;99.90
11925;DHT22;6022;48.768;18.608;2023-09-18T05:09:06;17.90;99.90
11925;DHT22;6022;48.768;18.608;2023-09-18T05:12:01;18.10;99.90
11925;DHT22;6022;48.768;18.608;2023-09-18T05:14:52;18.20;99.90
11925;DHT22;6022;48.768;18.608;2023-09-18T05:20:45;19.80;99.90
11925;DHT22;6022;48.768;18.608;2023-09-18T05:23:24;19.90;99.90
11925;DHT22;6022;48.768;18.608;2023-09-18T05:26:05;20.30;99.90
11925;DHT22;6022;48.768;18.608;2023-09-18T05:28:59;19.50;99.90
11925;DHT22;6022;48.768;18.608;2023-09-18T05:32:02;20.60;99.90
11925;DHT22;6022;48.768;18.608;2023-09-18T05:34:42;20.60;99.90
11925;DHT22;6022;48.768;18.608;2023-09-18T05:37:36;19.90;99.90
11925;DHT22;6022;48.768;18.608;2023-09-18T05:40:11;20.70;99.90
11925;DHT22;6022;48.768;18.608;2023-09-18T05:42:44;21.00;99.90
11925;DHT22;6022;48.768;18.608;2023-09-18T05:45:15;20.30;99.90
11925;DHT22;6022;48.768;18.608;2023-09-18T05:47:47;21.90;99.90
11925;DHT22;6022;48.768;18.608;2023-09-18T05:50:35;22.60;99.90
11925;DHT22;6022;48.768;18.608;2023-09-18T05:53:30;22.70;99.90
11925;DHT22;6022;48.768;18.608;2023-09-18T05:56:15;23.10;99.90
11925;DHT22;6022;48.768;18.608;2023-09-18T05:58:58;23.30;99.90
11925;DHT22;6022;48.768;18.608;2023-09-18T06:01:30;24.60;99.90
11925;DHT22;6022;48.768;18.608;2023-09-18T06:04:31;24.40;99.90
11925;DHT22;6022;48.768;18.608;2023-09-18T06:07:09;24.60;99.90
11925;DHT22;6022;48.768;18.608;2023-09-18T06:10:00;24.80;99.90
11925;DHT22;6022;48.768;18.608;2023-09-18T06:12:38;24.90;99.90
11925;DHT22;6022;48.768;18.608;2023-09-18T06:15:24;25.50;99.90
11925;DHT22;6022;48.768;18.608;2023-09-18T06:18:14;26.40;99.90
11925;DHT22;6022;48.768;18.608;2023-09-18T06:20:44;26.50;99.90
11925;DHT22;6022;48.768;18.608;2023-09-18T06:23:30;26.50;99.90
11925;DHT22;6022;48.768;18.608;2023-09-18T06:26:23;27.20;99.90
11925;DHT22;6022;48.768;18.608;2023-09-18T06:29:42;27.00;99.90
11925;DHT22;6022;48.768;18.608;2023-09-18T06:32:36;26.00;99.90
11925;DHT22;6022;48.768;18.608;2023-09-18T06:35:33;26.30;99.90
11925;DHT22;6022;48.768;18.608;2023-09-18T06:38:01;26.30;99.90
11925;DHT22;6022;48.768;18.608;2023-09-18T06:40:29;26.90;99.90
11925;DHT22;6022;48.768;18.608;2023-09-18T06:43:04;26.90;99.90
11925;DHT22;6022;48.768;18.608;2023-09-18T06:45:39;27.00;99.90
11925;DHT22;6022;48.768;18.608;2023-09-18T06:48:30;26.50;99.90
11925;DHT22;6022;48.768;18.608;2023-09-18T06:51:12;24.90;99.90
11925;DHT22;6022;48.768;18.608;2023-09-18T06:53:41;24.70;99.90
11925;DHT22;6022;48.768;18.608;2023-09-18T06:56:10;25.80;99.90
11925;DHT22;6022;48.768;18.608;2023-09-18T06:58:45;27.50;99.90
11925;DHT22;6022;48.768;18.608;2023-09-18T07:01:18;27.70;99.90
11925;DHT22;6022;48.768;18.608;2023-09-18T07:03:49;28.10;99.90
11925;DHT22;6022;48.768;18.608;2023-09-18T07:06:24;28.40;99.90
11925;DHT22;6022;48.768;18.608;2023-09-18T07:09:04;28.90;99.90
11925;DHT22;6022;48.768;18.608;2023-09-18T07:11:38;29.50;99.90
11925;DHT22;6022;48.768;18.608;2023-09-18T07:14:12;29.40;99.90
11925;DHT22;6022;48.768;18.608;2023-09-18T07:16:39;29.00;99.90
11925;DHT22;6022;48.768;18.608;2023-09-18T07:19:19;29.60;99.90
11925;DHT22;6022;48.768;18.608;2023-09-18T07:21:52;29.30;99.90
11925;DHT22;6022;48.768;18.608;2023-09-18T07:24:32;28.50;99.90
11925;DHT22;6022;48.768;18.608;2023-09-18T07:27:12;27.60;99.90
11925;DHT22;6022;48.768;18.608;2023-09-18T07:29:55;27.70;99.90
11925;DHT22;6022;48.768;18.608;2023-09-18T07:32:26;28.60;99.90
11925;DHT22;6022;48.768;18.608;2023-09-18T07:35:04;29.40;99.90
11925;DHT22;6022;48.768;18.608;2023-09-18T07:37:34;30.00;99.90
11925;DHT22;6022;48.768;18.608;2023-09-18T07:40:13;30.00;99.90
11925;DHT22;6022;48.768;18.608;2023-09-18T07:42:50;30.60;99.90
11925;DHT22;6022;48.768;18.608;2023-09-18T07:45:20;30.50;99.90
11925;DHT22;6022;48.768;18.608;2023-09-18T07:48:02;30.00;99.90
11925;DHT22;6022;48.768;18.608;2023-09-18T07:50:43;30.20;99.90
11925;DHT22;6022;48.768;18.608;2023-09-18T07:53:28;29.40;99.90
11925;DHT22;6022;48.768;18.608;2023-09-18T07:56:06;29.40;99.90
11925;DHT22;6022;48.768;18.608;2023-09-18T07:58:42;29.30;99.90
11925;DHT22;6022;48.768;18.608;2023-09-18T08:01:14;30.10;99.90
11925;DHT22;6022;48.768;18.608;2023-09-18T08:03:43;30.60;99.90
11925;DHT22;6022;48.768;18.608;2023-09-18T08:06:30;30.10;96.90
11925;DHT22;6022;48.768;18.608;2023-09-18T08:09:00;30.60;95.30
11925;DHT22;6022;48.768;18.608;2023-09-18T08:11:44;30.80;94.20
11925;DHT22;6022;48.768;18.608;2023-09-18T08:14:37;30.40;93.10
11925;DHT22;6022;48.768;18.608;2023-09-18T08:17:22;31.00;93.00
11925;DHT22;6022;48.768;18.608;2023-09-18T08:20:02;31.00;92.20
11925;DHT22;6022;48.768;18.608;2023-09-18T08:23:13;31.50;91.80
11925;DHT22;6022;48.768;18.608;2023-09-18T08:25:50;30.90;90.40
11925;DHT22;6022;48.768;18.608;2023-09-18T08:28:59;30.90;90.40
11925;DHT22;6022;48.768;18.608;2023-09-18T08:31:40;31.20;90.50
11925;DHT22;6022;48.768;18.608;2023-09-18T08:34:32;31.30;90.40
11925;DHT22;6022;48.768;18.608;2023-09-18T08:37:06;31.50;85.60
11925;DHT22;6022;48.768;18.608;2023-09-18T08:39:59;31.30;86.40
11925;DHT22;6022;48.768;18.608;2023-09-18T08:43:19;31.40;85.40
11925;DHT22;6022;48.768;18.608;2023-09-18T08:46:44;31.30;85.00
11925;DHT22;6022;48.768;18.608;2023-09-18T08:49:30;31.40;85.90
11925;DHT22;6022;48.768;18.608;2023-09-18T08:52:24;31.20;83.80
11925;DHT22;6022;48.768;18.608;2023-09-18T08:55:04;31.40;82.90
11925;DHT22;6022;48.768;18.608;2023-09-18T09:02:00;29.90;83.10
11925;DHT22;6022;48.768;18.608;2023-09-18T09:04:51;29.40;86.70
11925;DHT22;6022;48.768;18.608;2023-09-18T09:07:25;30.00;87.60
11925;DHT22;6022;48.768;18.608;2023-09-18T09:10:21;31.10;85.60
11925;DHT22;6022;48.768;18.608;2023-09-18T09:13:27;31.80;82.60
11925;DHT22;6022;48.768;18.608;2023-09-18T09:16:32;32.20;80.50
11925;DHT22;6022;48.768;18.608;2023-09-18T09:19:53;32.20;80.90
11925;DHT22;6022;48.768;18.608;2023-09-18T09:22:45;31.40;80.30
11925;DHT22;6022;48.768;18.608;2023-09-18T09:25:24;31.00;78.70
11925;DHT22;6022;48.768;18.608;2023-09-18T09:28:31;29.80;85.40
11925;DHT22;6022;48.768;18.608;2023-09-18T09:31:05;29.20;86.60
11925;DHT22;6022;48.768;18.608;2023-09-18T09:33:33;30.00;87.90
11925;DHT22;6022;48.768;18.608;2023-09-18T09:36:54;30.20;89.20
11925;DHT22;6022;48.768;18.608;2023-09-18T09:39:37;29.50;88.80
11925;DHT22;6022;48.768;18.608;2023-09-18T09:42:41;27.80;93.50
11925;DHT22;6022;48.768;18.608;2023-09-18T09:45:15;27.90;96.20
11925;DHT22;6022;48.768;18.608;2023-09-18T09:48:00;27.90;95.50
11925;DHT22;6022;48.768;18.608;2023-09-18T09:50:29;28.80;95.10
11925;DHT22;6022;48.768;18.608;2023-09-18T09:52:59;29.70;93.50
11925;DHT22;6022;48.768;18.608;2023-09-18T09:55:31;29.60;93.30
11925;DHT22;6022;48.768;18.608;2023-09-18T09:58:02;28.70;93.10
11925;DHT22;6022;48.768;18.608;2023-09-18T10:00:38;29.10;93.90
11925;DHT22;6022;48.768;18.608;2023-09-18T10:03:20;29.70;91.50
11925;DHT22;6022;48.768;18.608;2023-09-18T10:05:51;28.80;92.90
11925;DHT22;6022;48.768;18.608;2023-09-18T10:08:25;28.70;94.50
11925;DHT22;6022;48.768;18.608;2023-09-18T10:11:02;28.50;94.20
11925;DHT22;6022;48.768;18.608;2023-09-18T10:13:58;28.50;96.30
11925;DHT22;6022;48.768;18.608;2023-09-18T10:16:31;28.50;94.90
11925;DHT22;6022;48.768;18.608;2023-09-18T10:19:21;29.00;94.00
11925;DHT22;6022;48.768;18.608;2023-09-18T10:25:20;29.90;94.00
11925;DHT22;6022;48.768;18.608;2023-09-18T10:27:51;29.80;90.70
11925;DHT22;6022;48.768;18.608;2023-09-18T10:30:25;29.80;91.60
11925;DHT22;6022;48.768;18.608;2023-09-18T10:32:53;28.70;91.90
11925;DHT22;6022;48.768;18.608;2023-09-18T10:35:22;29.50;92.10
11925;DHT22;6022;48.768;18.608;2023-09-18T10:37:49;29.70;91.40
11925;DHT22;6022;48.768;18.608;2023-09-18T10:40:18;30.70;90.30
11925;DHT22;6022;48.768;18.608;2023-09-18T10:42:48;30.80;87.80
11925;DHT22;6022;48.768;18.608;2023-09-18T10:45:17;31.30;82.70
11925;DHT22;6022;48.768;18.608;2023-09-18T10:47:46;31.20;83.80
11925;DHT22;6022;48.768;18.608;2023-09-18T10:50:26;31.50;82.80
11925;DHT22;6022;48.768;18.608;2023-09-18T10:52:57;31.30;82.90
11925;DHT22;6022;48.768;18.608;2023-09-18T10:55:25;30.20;85.50
11925;DHT22;6022;48.768;18.608;2023-09-18T10:57:55;29.80;86.80
11925;DHT22;6022;48.768;18.608;2023-09-18T11:00:27;30.00;88.50
11925;DHT22;6022;48.768;18.608;2023-09-18T11:03:16;30.10;86.10
11925;DHT22;6022;48.768;18.608;2023-09-18T11:05:46;30.80;85.90
11925;DHT22;6022;48.768;18.608;2023-09-18T11:11:12;31.60;88.10
11925;DHT22;6022;48.768;18.608;2023-09-18T11:13:50;30.90;86.30
11925;DHT22;6022;48.768;18.608;2023-09-18T11:21:32;28.60;90.60
11925;DHT22;6022;48.768;18.608;2023-09-18T11:24:07;27.40;92.60
11925;DHT22;6022;48.768;18.608;2023-09-18T11:26:44;27.80;94.10
11925;DHT22;6022;48.768;18.608;2023-09-18T11:29:18;28.40;94.00
11925;DHT22;6022;48.768;18.608;2023-09-18T11:34:29;28.30;93.60
11925;DHT22;6022;48.768;18.608;2023-09-18T11:37:02;29.00;93.80
11925;DHT22;6022;48.768;18.608;2023-09-18T11:39:46;28.90;91.80
11925;DHT22;6022;48.768;18.608;2023-09-18T11:42:18;28.80;91.30
11925;DHT22;6022;48.768;18.608;2023-09-18T11:44:47;28.60;91.90
11925;DHT22;6022;48.768;18.608;2023-09-18T11:47:17;29.20;92.20
11925;DHT22;6022;48.768;18.608;2023-09-18T11:49:49;29.00;92.50
11925;DHT22;6022;48.768;18.608;2023-09-18T11:52:29;28.50;93.80
11925;DHT22;6022;48.768;18.608;2023-09-18T11:54:59;28.30;93.10
11925;DHT22;6022;48.768;18.608;2023-09-18T11:57:27;28.40;94.00
11925;DHT22;6022;48.768;18.608;2023-09-18T11:59:56;28.30;93.70
11925;DHT22;6022;48.768;18.608;2023-09-18T12:02:30;27.90;93.90
11925;DHT22;6022;48.768;18.608;2023-09-18T12:05:14;28.80;93.80
11925;DHT22;6022;48.768;18.608;2023-09-18T12:07:46;28.90;92.90
11925;DHT22;6022;48.768;18.608;2023-09-18T12:10:15;28.80;93.30
11925;DHT22;6022;48.768;18.608;2023-09-18T12:12:46;28.90;92.40
11925;DHT22;6022;48.768;18.608;2023-09-18T12:15:16;28.30;92.60
11925;DHT22;6022;48.768;18.608;2023-09-18T12:17:45;28.10;95.00
11925;DHT22;6022;48.768;18.608;2023-09-18T12:20:17;28.20;95.40
11925;DHT22;6022;48.768;18.608;2023-09-18T12:22:50;26.70;95.20
11925;DHT22;6022;48.768;18.608;2023-09-18T12:25:18;27.20;96.10
11925;DHT22;6022;48.768;18.608;2023-09-18T12:27:46;27.30;95.70
11925;DHT22;6022;48.768;18.608;2023-09-18T12:30:20;28.10;96.00
11925;DHT22;6022;48.768;18.608;2023-09-18T12:32:51;28.30;95.30
11925;DHT22;6022;48.768;18.608;2023-09-18T12:35:19;28.30;94.60
11925;DHT22;6022;48.768;18.608;2023-09-18T12:37:46;28.00;95.00
11925;DHT22;6022;48.768;18.608;2023-09-18T12:40:27;28.50;95.10
11925;DHT22;6022;48.768;18.608;2023-09-18T12:43:02;27.90;94.30
11925;DHT22;6022;48.768;18.608;2023-09-18T12:45:34;28.40;94.90
11925;DHT22;6022;48.768;18.608;2023-09-18T12:48:02;28.80;93.90
11925;DHT22;6022;48.768;18.608;2023-09-18T12:50:31;28.50;93.70
11925;DHT22;6022;48.768;18.608;2023-09-18T12:53:12;28.50;94.00
11925;DHT22;6022;48.768;18.608;2023-09-18T12:55:41;27.70;95.00
11925;DHT22;6022;48.768;18.608;2023-09-18T12:58:12;28.20;95.80
11925;DHT22;6022;48.768;18.608;2023-09-18T13:00:50;28.50;95.40
11925;DHT22;6022;48.768;18.608;2023-09-18T13:03:18;28.90;94.30
11925;DHT22;6022;48.768;18.608;2023-09-18T13:05:45;28.80;94.00
11925;DHT22;6022;48.768;18.608;2023-09-18T13:08:13;28.10;93.50
11925;DHT22;6022;48.768;18.608;2023-09-18T13:10:46;27.30;94.10
11925;DHT22;6022;48.768;18.608;2023-09-18T13:13:21;27.00;95.80
11925;DHT22;6022;48.768;18.608;2023-09-18T13:15:49;26.80;96.80
11925;DHT22;6022;48.768;18.608;2023-09-18T13:18:21;27.30;97.40
11925;DHT22;6022;48.768;18.608;2023-09-18T13:20:51;27.40;96.10
11925;DHT22;6022;48.768;18.608;2023-09-18T13:23:19;26.60;97.10
11925;DHT22;6022;48.768;18.608;2023-09-18T13:25:48;26.50;97.20
11925;DHT22;6022;48.768;18.608;2023-09-18T13:28:15;26.00;98.20
11925;DHT22;6022;48.768;18.608;2023-09-18T13:30:44;26.10;98.80
11925;DHT22;6022;48.768;18.608;2023-09-18T13:33:13;26.50;98.80
11925;DHT22;6022;48.768;18.608;2023-09-18T13:35:44;26.60;97.90
11925;DHT22;6022;48.768;18.608;2023-09-18T13:38:12;27.30;98.00
11925;DHT22;6022;48.768;18.608;2023-09-18T13:40:42;27.20;98.10
11925;DHT22;6022;48.768;18.608;2023-09-18T13:43:12;26.80;98.30
11925;DHT22;6022;48.768;18.608;2023-09-18T13:45:42;26.80;98.90
11925;DHT22;6022;48.768;18.608;2023-09-18T13:48:09;26.70;98.50
11925;DHT22;6022;48.768;18.608;2023-09-18T13:50:37;26.10;99.70
11925;DHT22;6022;48.768;18.608;2023-09-18T13:53:05;26.40;99.50
11925;DHT22;6022;48.768;18.608;2023-09-18T13:55:34;25.80;99.00
11925;DHT22;6022;48.768;18.608;2023-09-18T13:58:01;25.70;99.90
11925;DHT22;6022;48.768;18.608;2023-09-18T14:00:32;26.10;99.90
11925;DHT22;6022;48.768;18.608;2023-09-18T14:02:59;25.70;99.90
11925;DHT22;6022;48.768;18.608;2023-09-18T14:05:27;25.80;99.90
11925;DHT22;6022;48.768;18.608;2023-09-18T14:07:57;25.60;99.90
11925;DHT22;6022;48.768;18.608;2023-09-18T14:10:27;26.00;99.90
11925;DHT22;6022;48.768;18.608;2023-09-18T14:12:54;25.90;99.90
11925;DHT22;6022;48.768;18.608;2023-09-18T14:15:22;25.70;99.90
11925;DHT22;6022;48.768;18.608;2023-09-18T14:20:17;26.50;99.90
11925;DHT22;6022;48.768;18.608;2023-09-18T14:22:48;26.40;99.90
11925;DHT22;6022;48.768;18.608;2023-09-18T14:25:17;26.60;99.90
11925;DHT22;6022;48.768;18.608;2023-09-18T14:27:47;25.60;99.80
11925;DHT22;6022;48.768;18.608;2023-09-18T14:30:14;26.30;99.90
11925;DHT22;6022;48.768;18.608;2023-09-18T14:32:42;25.70;99.90
11925;DHT22;6022;48.768;18.608;2023-09-18T14:35:09;26.60;99.90
11925;DHT22;6022;48.768;18.608;2023-09-18T14:37:37;26.50;99.90
11925;DHT22;6022;48.768;18.608;2023-09-18T14:40:05;25.70;99.90
11925;DHT22;6022;48.768;18.608;2023-09-18T14:42:33;26.60;99.90
11925;DHT22;6022;48.768;18.608;2023-09-18T14:45:00;25.40;99.90
11925;DHT22;6022;48.768;18.608;2023-09-18T14:47:29;25.50;99.90
11925;DHT22;6022;48.768;18.608;2023-09-18T14:52:25;25.50;99.90
11925;DHT22;6022;48.768;18.608;2023-09-18T14:54:53;25.50;99.90
11925;DHT22;6022;48.768;18.608;2023-09-18T14:57:20;25.50;99.90
11925;DHT22;6022;48.768;18.608;2023-09-18T15:07:15;25.50;99.90
11925;DHT22;6022;48.768;18.608;2023-09-18T15:09:43;26.20;99.90
11925;DHT22;6022;48.768;18.608;2023-09-18T15:12:11;25.50;99.90
11925;DHT22;6022;48.768;18.608;2023-09-18T15:14:39;25.50;99.90
11925;DHT22;6022;48.768;18.608;2023-09-18T15:19:35;25.60;99.90
11925;DHT22;6022;48.768;18.608;2023-09-18T15:22:02;25.40;99.90
11925;DHT22;6022;48.768;18.608;2023-09-18T15:26:57;25.40;99.90
11925;DHT22;6022;48.768;18.608;2023-09-18T15:32:00;25.40;99.90
11925;DHT22;6022;48.768;18.608;2023-09-18T15:34:32;25.40;99.90
11925;DHT22;6022;48.768;18.608;2023-09-18T15:37:00;24.90;99.90
11925;DHT22;6022;48.768;18.608;2023-09-18T15:39:31;25.40;99.90
11925;DHT22;6022;48.768;18.608;2023-09-18T15:41:59;25.50;99.90
11925;DHT22;6022;48.768;18.608;2023-09-18T15:46:55;25.40;99.90
11925;DHT22;6022;48.768;18.608;2023-09-18T15:51:50;25.50;99.90
11925;DHT22;6022;48.768;18.608;2023-09-18T15:56:45;25.50;99.90
11925;DHT22;6022;48.768;18.608;2023-09-18T16:01:40;24.40;99.90
11925;DHT22;6022;48.768;18.608;2023-09-18T16:04:08;24.50;99.90
11925;DHT22;6022;48.768;18.608;2023-09-18T16:09:03;25.00;99.90
11925;DHT22;6022;48.768;18.608;2023-09-18T16:11:33;24.60;99.90
11925;DHT22;6022;48.768;18.608;2023-09-18T16:16:28;25.30;99.90
11925;DHT22;6022;48.768;18.608;2023-09-18T16:23:52;24.60;99.90
11925;DHT22;6022;48.768;18.608;2023-09-18T16:26:23;24.60;99.90
11925;DHT22;6022;48.768;18.608;2023-09-18T16:28:54;24.60;99.90
11925;DHT22;6022;48.768;18.608;2023-09-18T16:31:22;24.70;99.90
11925;DHT22;6022;48.768;18.608;2023-09-18T16:33:49;24.70;99.90
11925;DHT22;6022;48.768;18.608;2023-09-18T16:41:23;24.30;99.90
11925;DHT22;6022;48.768;18.608;2023-09-18T16:43:55;24.60;99.90
11925;DHT22;6022;48.768;18.608;2023-09-18T16:48:53;24.80;99.90
11925;DHT22;6022;48.768;18.608;2023-09-18T16:53:54;24.30;99.90
11925;DHT22;6022;48.768;18.608;2023-09-18T17:06:20;24.50;99.90
11925;DHT22;6022;48.768;18.608;2023-09-18T17:11:16;24.20;99.90
11925;DHT22;6022;48.768;18.608;2023-09-18T17:18:48;24.30;99.90
11925;DHT22;6022;48.768;18.608;2023-09-18T17:21:40;24.50;99.90
11925;DHT22;6022;48.768;18.608;2023-09-18T17:24:40;24.60;99.90
11925;DHT22;6022;48.768;18.608;2023-09-18T17:27:11;24.40;99.90
11925;DHT22;6022;48.768;18.608;2023-09-18T17:32:05;23.90;99.90
11925;DHT22;6022;48.768;18.608;2023-09-18T17:37:06;24.10;99.90
11925;DHT22;6022;48.768;18.608;2023-09-18T17:39:34;24.20;99.90
11925;DHT22;6022;48.768;18.608;2023-09-18T17:44:29;24.30;99.90
11925;DHT22;6022;48.768;18.608;2023-09-18T17:46:57;24.40;99.90
11925;DHT22;6022;48.768;18.608;2023-09-18T17:49:24;24.20;99.90
11925;DHT22;6022;48.768;18.608;2023-09-18T17:51:51;24.00;99.90
11925;DHT22;6022;48.768;18.608;2023-09-18T17:54:18;24.40;99.90